Nechanitz, Texas
Current Conditions -  °F | °C
As of 5:15 AM on Saturday 25 Oct 2014 (Local Time) from KGYB Reporting Station
Clear Clear  
Wind Chill: 58°   Ceiling: Unl
Heat Index: 58°   Visibility: 10mi
Dew Point: 56°   Wind: 0mph
Humidity: 92%   Direction: NA
Pressure: 30.18"   Gusts: NA
Location:  30.2279°N, 96.7713°W
Report Text: KGYB 251015Z AUTO 00000KT 10SM CLR 14/13 A3018 RMK AO2 T01440131
Loading
Personal Weather Stations






























Interactive Weather Map
Tropical Storm Tracking
New forecast layout! Learn more

10-Day Weather Forecast

Advertisements
Track Severe Weather on mobile